createdAt,value
2018-03-30T00:00:40.802Z,948.29
2018-03-30T00:01:40.751Z,948.27
2018-03-30T00:02:40.755Z,948.27
2018-03-30T00:03:40.762Z,948.29
2018-03-30T00:04:40.767Z,948.26
2018-03-30T00:05:40.774Z,948.26
2018-03-30T00:06:40.778Z,948.25
2018-03-30T00:07:40.782Z,948.23
2018-03-30T00:08:40.787Z,948.22
2018-03-30T00:09:40.792Z,948.19
2018-03-30T00:10:40.797Z,948.22
2018-03-30T00:11:40.807Z,948.19
2018-03-30T00:12:40.808Z,948.15
2018-03-30T00:13:40.809Z,948.17
2018-03-30T00:14:40.817Z,948.17
2018-03-30T00:15:40.818Z,948.09
2018-03-30T00:16:40.825Z,948.09
2018-03-30T00:17:40.831Z,948.07
2018-03-30T00:18:40.842Z,948.06
2018-03-30T00:19:40.842Z,948.00
2018-03-30T00:20:40.846Z,947.98
2018-03-30T00:21:40.849Z,947.97
2018-03-30T00:22:40.855Z,947.98
2018-03-30T00:23:40.861Z,947.96
2018-03-30T00:24:40.864Z,947.99
2018-03-30T00:25:40.871Z,947.97
2018-03-30T00:26:40.873Z,948.02
2018-03-30T00:27:40.878Z,947.97
2018-03-30T00:28:40.884Z,947.97
2018-03-30T00:29:40.893Z,947.95
2018-03-30T00:30:40.895Z,947.91
2018-03-30T00:31:40.899Z,947.89
2018-03-30T00:32:40.904Z,947.87
2018-03-30T00:33:40.912Z,947.87
2018-03-30T00:34:40.913Z,947.87
2018-03-30T00:35:40.924Z,947.83
2018-03-30T00:36:40.922Z,947.85
2018-03-30T00:37:40.929Z,947.84
2018-03-30T00:38:40.932Z,947.87
2018-03-30T00:39:40.939Z,947.86
2018-03-30T00:40:40.942Z,947.84
2018-03-30T00:41:40.951Z,947.83
2018-03-30T00:42:40.957Z,947.80
2018-03-30T00:43:40.954Z,947.80
2018-03-30T00:44:40.959Z,947.79
2018-03-30T00:45:40.965Z,947.72
2018-03-30T00:46:40.970Z,947.69
2018-03-30T00:47:40.975Z,947.69
2018-03-30T00:48:40.977Z,947.65
2018-03-30T00:49:40.983Z,947.68
2018-03-30T00:50:41.000Z,947.67
2018-03-30T00:51:40.992Z,947.65
2018-03-30T00:52:41.001Z,947.67
2018-03-30T00:53:41.002Z,947.70
2018-03-30T00:54:41.007Z,947.69
2018-03-30T00:55:41.014Z,947.71
2018-03-30T00:56:41.014Z,947.70
2018-03-30T00:57:41.019Z,947.75
2018-03-30T00:58:41.025Z,947.78
2018-03-30T00:59:41.030Z,947.73
2018-03-30T01:00:41.036Z,947.73
2018-03-30T01:01:41.048Z,947.72
2018-03-30T01:02:41.046Z,947.69
2018-03-30T01:03:41.047Z,947.67
2018-03-30T01:04:41.051Z,947.67
2018-03-30T01:05:41.058Z,947.69
2018-03-30T01:06:41.061Z,947.71
2018-03-30T01:07:41.068Z,947.70
2018-03-30T01:08:41.071Z,947.72
2018-03-30T01:09:41.075Z,947.77
2018-03-30T01:10:41.078Z,947.74
2018-03-30T01:11:41.084Z,947.75
2018-03-30T01:12:41.090Z,947.72
2018-03-30T01:13:41.096Z,947.77
2018-03-30T01:14:41.100Z,947.79
2018-03-30T01:15:41.103Z,947.79
2018-03-30T01:16:41.111Z,947.82
2018-03-30T01:17:41.119Z,947.85
2018-03-30T01:18:41.116Z,947.82
2018-03-30T01:19:41.120Z,947.81
2018-03-30T01:20:41.134Z,947.81
2018-03-30T01:21:41.131Z,947.82
2018-03-30T01:22:41.136Z,947.85
2018-03-30T01:23:41.139Z,947.90
2018-03-30T01:24:41.144Z,947.90
2018-03-30T01:25:41.148Z,947.88
2018-03-30T01:26:41.160Z,947.88
2018-03-30T01:27:41.161Z,947.86
2018-03-30T01:28:41.165Z,947.86
2018-03-30T01:29:41.167Z,947.86
2018-03-30T01:30:41.175Z,947.84
2018-03-30T01:31:41.177Z,947.81
2018-03-30T01:32:41.181Z,947.85
2018-03-30T01:33:41.186Z,947.84
2018-03-30T01:34:41.190Z,947.88
2018-03-30T01:35:41.197Z,947.86
2018-03-30T01:36:41.201Z,947.85
2018-03-30T01:37:41.205Z,947.87
2018-03-30T01:38:41.208Z,947.81
2018-03-30T01:39:41.213Z,947.81
2018-03-30T01:40:41.216Z,947.81
2018-03-30T01:41:41.226Z,947.80
2018-03-30T01:42:41.302Z,947.75
2018-03-30T01:43:41.230Z,947.75
2018-03-30T01:44:41.234Z,947.74
2018-03-30T01:45:41.243Z,947.75
2018-03-30T01:46:41.248Z,947.70
2018-03-30T01:47:41.247Z,947.67
2018-03-30T01:48:41.253Z,947.69
2018-03-30T01:49:41.260Z,947.62
2018-03-30T01:50:41.261Z,947.61
2018-03-30T01:51:41.269Z,947.59
2018-03-30T01:52:41.279Z,947.58
2018-03-30T01:53:41.275Z,947.58
2018-03-30T01:54:41.282Z,947.59
2018-03-30T01:55:41.284Z,947.57
2018-03-30T01:56:41.289Z,947.51
2018-03-30T01:57:41.294Z,947.53
2018-03-30T01:58:41.301Z,947.52
2018-03-30T01:59:41.300Z,947.47
2018-03-30T02:00:41.308Z,947.45
2018-03-30T02:01:41.310Z,947.42
2018-03-30T02:02:41.444Z,947.40
2018-03-30T02:03:41.320Z,947.34
2018-03-30T02:04:41.324Z,947.35
2018-03-30T02:05:41.331Z,947.36
2018-03-30T02:06:41.335Z,947.35
2018-03-30T02:07:41.337Z,947.37
2018-03-30T02:08:41.345Z,947.33
2018-03-30T02:09:41.347Z,947.28
2018-03-30T02:10:41.358Z,947.30
2018-03-30T02:11:41.355Z,947.25
2018-03-30T02:12:41.465Z,947.24
2018-03-30T02:13:41.389Z,947.25
2018-03-30T02:14:41.372Z,947.22
2018-03-30T02:15:41.375Z,947.20
2018-03-30T02:16:41.378Z,947.18
2018-03-30T02:17:41.382Z,947.16
2018-03-30T02:18:41.387Z,947.16
2018-03-30T02:19:41.389Z,947.16
2018-03-30T02:20:41.396Z,947.13
2018-03-30T02:21:41.404Z,947.13
2018-03-30T02:22:41.460Z,947.14
2018-03-30T02:23:41.409Z,947.14
2018-03-30T02:24:41.415Z,947.13
2018-03-30T02:25:41.420Z,947.14
2018-03-30T02:26:41.425Z,947.15
2018-03-30T02:27:41.429Z,947.15
2018-03-30T02:28:41.431Z,947.13
2018-03-30T02:29:41.435Z,947.14
2018-03-30T02:30:41.439Z,947.14
2018-03-30T02:31:41.443Z,947.12
2018-03-30T02:32:41.454Z,947.10
2018-03-30T02:33:41.467Z,947.07
2018-03-30T02:34:41.459Z,947.02
2018-03-30T02:35:41.462Z,947.03
2018-03-30T02:36:41.469Z,947.00
2018-03-30T02:37:41.474Z,947.01
2018-03-30T02:38:41.482Z,946.95
2018-03-30T02:39:41.478Z,947.00
2018-03-30T02:40:41.485Z,946.97
2018-03-30T02:41:41.490Z,947.00
2018-03-30T02:42:41.514Z,946.93
2018-03-30T02:43:41.499Z,946.92
2018-03-30T02:44:41.500Z,946.93
2018-03-30T02:45:41.508Z,946.95
2018-03-30T02:46:41.511Z,946.89
2018-03-30T02:47:41.512Z,946.89
2018-03-30T02:48:41.529Z,946.89
2018-03-30T02:49:41.526Z,946.87
2018-03-30T02:50:41.526Z,946.87
2018-03-30T02:51:41.533Z,946.90
2018-03-30T02:52:41.534Z,946.87
2018-03-30T02:53:41.539Z,946.84
2018-03-30T02:54:41.545Z,946.75
2018-03-30T02:55:41.550Z,946.77
2018-03-30T02:56:41.555Z,946.75
2018-03-30T02:57:41.563Z,946.73
2018-03-30T02:58:41.562Z,946.73
2018-03-30T02:59:41.566Z,946.70
2018-03-30T03:00:41.571Z,946.67
2018-03-30T03:01:41.573Z,946.67
2018-03-30T03:02:41.585Z,946.59
2018-03-30T03:03:41.580Z,946.58
2018-03-30T03:04:41.592Z,946.52
2018-03-30T03:05:41.588Z,946.49
2018-03-30T03:06:41.596Z,946.51
2018-03-30T03:07:41.605Z,946.47
2018-03-30T03:08:41.605Z,946.52
2018-03-30T03:09:41.608Z,946.57
2018-03-30T03:10:41.614Z,946.54
2018-03-30T03:11:41.617Z,946.56
2018-03-30T03:12:41.620Z,946.55
2018-03-30T03:13:41.623Z,946.55
2018-03-30T03:14:41.632Z,946.57
2018-03-30T03:15:41.636Z,946.53
2018-03-30T03:16:41.636Z,946.53
2018-03-30T03:17:41.638Z,946.56
2018-03-30T03:18:41.646Z,946.50
2018-03-30T03:19:41.649Z,946.50
2018-03-30T03:20:41.654Z,946.49
2018-03-30T03:21:41.659Z,946.47
2018-03-30T03:22:41.660Z,946.47
2018-03-30T03:23:41.665Z,946.51
2018-03-30T03:24:41.674Z,946.50
2018-03-30T03:25:41.675Z,946.54
2018-03-30T03:26:41.678Z,946.53
2018-03-30T03:27:41.691Z,946.55
2018-03-30T03:28:41.686Z,946.58
2018-03-30T03:29:41.693Z,946.56
2018-03-30T03:30:41.696Z,946.56
2018-03-30T03:31:41.700Z,946.54
2018-03-30T03:32:41.703Z,946.57
2018-03-30T03:33:41.709Z,946.60
2018-03-30T03:34:41.718Z,946.58
2018-03-30T03:35:41.715Z,946.58
2018-03-30T03:36:41.724Z,946.60
2018-03-30T03:37:41.724Z,946.57
2018-03-30T03:38:41.727Z,946.55
2018-03-30T03:39:41.731Z,946.46
2018-03-30T03:40:41.735Z,946.46
2018-03-30T03:41:41.740Z,946.50
2018-03-30T03:42:41.744Z,946.48
2018-03-30T03:43:41.746Z,946.47
2018-03-30T03:44:41.754Z,946.51
2018-03-30T03:45:41.756Z,946.48
2018-03-30T03:46:41.763Z,946.46
2018-03-30T03:47:41.766Z,946.49
2018-03-30T03:48:41.770Z,946.51
2018-03-30T03:49:41.771Z,946.47
2018-03-30T03:50:41.782Z,946.45
2018-03-30T03:51:41.782Z,946.47
2018-03-30T03:52:41.788Z,946.52
2018-03-30T03:53:41.789Z,946.50
2018-03-30T03:54:41.794Z,946.51
2018-03-30T03:55:41.798Z,946.54
2018-03-30T03:56:41.836Z,946.50
2018-03-30T03:57:41.806Z,946.49
2018-03-30T03:58:41.809Z,946.53
2018-03-30T03:59:41.812Z,946.54
2018-03-30T04:00:41.818Z,946.48
2018-03-30T04:01:41.821Z,946.46
2018-03-30T04:02:41.829Z,946.43
2018-03-30T04:03:41.832Z,946.42
2018-03-30T04:04:41.833Z,946.37
2018-03-30T04:05:41.838Z,946.39
2018-03-30T04:06:41.844Z,946.37
2018-03-30T04:07:41.847Z,946.41
2018-03-30T04:08:41.848Z,946.43
2018-03-30T04:09:41.855Z,946.46
2018-03-30T04:10:41.863Z,946.50
2018-03-30T04:11:41.863Z,946.53
2018-03-30T04:12:41.868Z,946.51
2018-03-30T04:13:41.873Z,946.46
2018-03-30T04:14:41.875Z,946.51
2018-03-30T04:15:41.879Z,946.49
2018-03-30T04:16:41.884Z,946.49
2018-03-30T04:17:41.890Z,946.45
2018-03-30T04:18:41.890Z,946.40
2018-03-30T04:19:41.901Z,946.43
2018-03-30T04:20:41.902Z,946.43
2018-03-30T04:21:41.908Z,946.41
2018-03-30T04:22:41.911Z,946.41
2018-03-30T04:23:41.912Z,946.40
2018-03-30T04:24:41.923Z,946.40
2018-03-30T04:25:41.922Z,946.38
2018-03-30T04:26:41.928Z,946.35
2018-03-30T04:27:41.932Z,946.36
2018-03-30T04:28:41.935Z,946.39
2018-03-30T04:29:41.939Z,946.41
2018-03-30T04:30:41.943Z,946.38
2018-03-30T04:31:41.949Z,946.33
2018-03-30T04:32:41.950Z,946.33
2018-03-30T04:33:41.960Z,946.35
2018-03-30T04:34:41.964Z,946.32
2018-03-30T04:35:41.966Z,946.29
2018-03-30T04:36:41.973Z,946.21
2018-03-30T04:37:41.974Z,946.20
2018-03-30T04:38:41.988Z,946.24
2018-03-30T04:39:41.988Z,946.19
2018-03-30T04:40:41.989Z,946.24
2018-03-30T04:41:41.993Z,946.20
2018-03-30T04:42:41.996Z,946.20
2018-03-30T04:43:42.000Z,946.22
2018-03-30T04:44:42.008Z,946.23
2018-03-30T04:45:42.009Z,946.23
2018-03-30T04:46:42.018Z,946.27
2018-03-30T04:47:42.017Z,946.25
2018-03-30T04:48:42.022Z,946.23
2018-03-30T04:49:42.027Z,946.20
2018-03-30T04:50:42.032Z,946.16
2018-03-30T04:51:42.044Z,946.17
2018-03-30T04:52:42.039Z,946.16
2018-03-30T04:53:42.043Z,946.17
2018-03-30T04:54:42.049Z,946.17
2018-03-30T04:55:42.054Z,946.17
2018-03-30T04:56:42.058Z,946.15
2018-03-30T04:57:42.064Z,946.13
2018-03-30T04:58:42.067Z,946.11
2018-03-30T04:59:42.073Z,946.14
2018-03-30T05:00:42.073Z,946.11
2018-03-30T05:01:42.081Z,946.10
2018-03-30T05:02:42.086Z,946.11
2018-03-30T05:03:42.088Z,946.11
2018-03-30T05:04:42.092Z,946.10
2018-03-30T05:05:42.096Z,946.06
2018-03-30T05:06:42.210Z,946.08
2018-03-30T05:07:42.106Z,946.04
2018-03-30T05:08:42.110Z,945.99
2018-03-30T05:09:42.121Z,945.97
2018-03-30T05:10:42.119Z,945.91
2018-03-30T05:11:42.125Z,945.95
2018-03-30T05:12:42.128Z,945.93
2018-03-30T05:13:42.133Z,945.94
2018-03-30T05:14:42.137Z,945.93
2018-03-30T05:15:42.140Z,945.93
2018-03-30T05:16:42.152Z,945.97
2018-03-30T05:17:42.151Z,945.94
2018-03-30T05:18:42.154Z,945.97
2018-03-30T05:19:42.159Z,945.96
2018-03-30T05:20:42.168Z,945.95
2018-03-30T05:21:42.170Z,945.92
2018-03-30T05:22:42.172Z,945.90
2018-03-30T05:23:42.179Z,945.92
2018-03-30T05:24:42.183Z,945.94
2018-03-30T05:25:42.184Z,945.93
2018-03-30T05:26:42.192Z,945.98
2018-03-30T05:27:42.196Z,945.98
2018-03-30T05:28:42.199Z,946.02
2018-03-30T05:29:42.204Z,945.96
2018-03-30T05:30:42.207Z,945.99
2018-03-30T05:31:42.211Z,945.99
2018-03-30T05:32:42.217Z,945.98
2018-03-30T05:33:42.224Z,946.00
2018-03-30T05:34:42.225Z,945.99
2018-03-30T05:35:42.232Z,945.99
2018-03-30T05:36:42.234Z,946.03
2018-03-30T05:37:42.238Z,946.09
2018-03-30T05:38:42.244Z,946.04
2018-03-30T05:39:42.252Z,946.07
2018-03-30T05:40:42.252Z,946.08
2018-03-30T05:41:42.258Z,946.10
2018-03-30T05:42:42.258Z,946.11
2018-03-30T05:43:42.265Z,946.14
2018-03-30T05:44:42.269Z,946.15
2018-03-30T05:45:42.279Z,946.18
2018-03-30T05:46:42.280Z,946.20
2018-03-30T05:47:42.280Z,946.15
2018-03-30T05:48:42.285Z,946.19
2018-03-30T05:49:42.292Z,946.18
2018-03-30T05:50:42.297Z,946.15
2018-03-30T05:51:42.298Z,946.12
2018-03-30T05:52:42.328Z,946.09
2018-03-30T05:53:42.309Z,946.10
2018-03-30T05:54:42.318Z,946.05
2018-03-30T05:55:42.318Z,945.99
2018-03-30T05:56:42.324Z,945.95
2018-03-30T05:57:42.329Z,945.97
2018-03-30T05:58:42.333Z,945.94
2018-03-30T05:59:42.349Z,945.93
2018-03-30T06:00:42.341Z,945.91
2018-03-30T06:01:42.348Z,945.89
2018-03-30T06:02:42.353Z,945.91
2018-03-30T06:03:42.354Z,945.87
2018-03-30T06:04:42.361Z,945.90
2018-03-30T06:05:42.364Z,945.86
2018-03-30T06:06:42.369Z,945.88
2018-03-30T06:07:42.373Z,945.84
2018-03-30T06:08:42.376Z,945.80
2018-03-30T06:09:42.390Z,945.82
2018-03-30T06:10:42.389Z,945.81
2018-03-30T06:11:42.392Z,945.78
2018-03-30T06:12:42.395Z,945.82
2018-03-30T06:13:42.406Z,945.88
2018-03-30T06:14:42.407Z,945.85
2018-03-30T06:15:42.417Z,945.88
2018-03-30T06:16:42.416Z,945.91
2018-03-30T06:17:42.421Z,945.90
2018-03-30T06:18:42.426Z,945.92
2018-03-30T06:19:42.428Z,945.92
2018-03-30T06:20:42.434Z,945.87
2018-03-30T06:21:42.440Z,945.88
2018-03-30T06:22:42.443Z,945.80
2018-03-30T06:23:42.453Z,945.77
2018-03-30T06:24:42.455Z,945.72
2018-03-30T06:25:42.459Z,945.70
2018-03-30T06:26:42.465Z,945.67
2018-03-30T06:27:42.468Z,945.61
2018-03-30T06:28:42.474Z,945.62
2018-03-30T06:29:42.479Z,945.61
2018-03-30T06:30:42.482Z,945.58
2018-03-30T06:31:42.491Z,945.59
2018-03-30T06:32:42.492Z,945.58
2018-03-30T06:33:42.501Z,945.61
2018-03-30T06:34:42.503Z,945.66
2018-03-30T06:35:42.506Z,945.66
2018-03-30T06:36:42.511Z,945.64
2018-03-30T06:37:42.517Z,945.64
2018-03-30T06:38:42.550Z,945.56
2018-03-30T06:39:42.529Z,945.56
2018-03-30T06:40:42.531Z,945.59
2018-03-30T06:41:42.541Z,945.62
2018-03-30T06:42:42.544Z,945.62
2018-03-30T06:43:42.614Z,945.62
2018-03-30T06:44:42.555Z,945.65
2018-03-30T06:45:42.560Z,945.65
2018-03-30T06:46:42.566Z,945.66
2018-03-30T06:47:42.569Z,945.64
2018-03-30T06:48:42.573Z,945.67
2018-03-30T06:49:42.578Z,945.70
2018-03-30T06:50:42.585Z,945.69
2018-03-30T06:51:42.590Z,945.74
2018-03-30T06:52:42.594Z,945.76
2018-03-30T06:53:42.597Z,945.76
2018-03-30T06:54:42.607Z,945.76
2018-03-30T06:55:42.609Z,945.79
2018-03-30T06:56:42.625Z,945.74
2018-03-30T06:57:42.658Z,945.74
2018-03-30T06:58:42.625Z,945.70
2018-03-30T06:59:42.652Z,945.71
2018-03-30T07:00:42.634Z,945.68
2018-03-30T07:01:42.688Z,945.67
2018-03-30T07:02:42.646Z,945.71
2018-03-30T07:03:42.652Z,945.72
2018-03-30T07:04:42.661Z,945.73
2018-03-30T07:05:42.664Z,945.75
2018-03-30T07:06:42.670Z,945.71
2018-03-30T07:07:42.676Z,945.75
2018-03-30T07:08:42.679Z,945.72
2018-03-30T07:09:42.688Z,945.74
2018-03-30T07:10:42.696Z,945.73
2018-03-30T07:11:42.696Z,945.70
2018-03-30T07:12:42.702Z,945.67
2018-03-30T07:13:42.707Z,945.65
2018-03-30T07:14:42.711Z,945.67
2018-03-30T07:15:42.717Z,945.67
2018-03-30T07:16:42.725Z,945.69
2018-03-30T07:17:42.734Z,945.64
2018-03-30T07:18:42.738Z,945.62
2018-03-30T07:19:42.738Z,945.62
2018-03-30T07:20:42.746Z,945.59
2018-03-30T07:21:42.760Z,945.61
2018-03-30T07:22:42.769Z,945.59
2018-03-30T07:23:42.763Z,945.62
2018-03-30T07:24:42.785Z,945.58
2018-03-30T07:25:42.771Z,945.64
2018-03-30T07:26:42.783Z,945.61
2018-03-30T07:27:42.794Z,945.58
2018-03-30T07:28:42.820Z,945.57
2018-03-30T07:29:42.798Z,945.55
2018-03-30T07:30:42.802Z,945.53
2018-03-30T07:31:42.811Z,945.55
2018-03-30T07:32:42.815Z,945.52
2018-03-30T07:33:42.818Z,945.52
2018-03-30T07:34:42.831Z,945.48
2018-03-30T07:35:42.826Z,945.54
2018-03-30T07:36:42.837Z,945.52
2018-03-30T07:37:42.838Z,945.53
2018-03-30T07:38:42.846Z,945.54
2018-03-30T07:39:42.850Z,945.55
2018-03-30T07:40:42.862Z,945.56
2018-03-30T07:41:42.863Z,945.54
2018-03-30T07:42:42.870Z,945.55
2018-03-30T07:43:42.910Z,945.58
2018-03-30T07:44:43.420Z,945.59
2018-03-30T07:45:42.886Z,945.60
2018-03-30T07:46:42.893Z,945.58
2018-03-30T07:47:42.940Z,945.59
2018-03-30T07:48:42.906Z,945.55
2018-03-30T07:49:42.911Z,945.52
2018-03-30T07:50:42.914Z,945.48
2018-03-30T07:51:42.923Z,945.42
2018-03-30T07:52:42.927Z,945.41
2018-03-30T07:53:42.932Z,945.40
2018-03-30T07:54:42.939Z,945.41
2018-03-30T07:55:42.943Z,945.40
2018-03-30T07:56:42.946Z,945.37
2018-03-30T07:57:42.956Z,945.32
2018-03-30T07:58:42.965Z,945.32
2018-03-30T07:59:42.970Z,945.29
2018-03-30T08:00:42.974Z,945.27
2018-03-30T08:01:42.984Z,945.29
2018-03-30T08:02:42.985Z,945.26
2018-03-30T08:03:42.998Z,945.23
2018-03-30T08:04:42.996Z,945.22
2018-03-30T08:05:43.003Z,945.20
2018-03-30T08:06:43.012Z,945.21
2018-03-30T08:07:43.015Z,945.17
2018-03-30T08:08:43.020Z,945.16
2018-03-30T08:09:43.024Z,945.14
2018-03-30T08:10:43.030Z,945.11
2018-03-30T08:11:43.039Z,945.10
2018-03-30T08:12:43.045Z,945.06
2018-03-30T08:13:43.052Z,945.05
2018-03-30T08:14:43.057Z,945.07
2018-03-30T08:15:43.062Z,945.02
2018-03-30T08:16:43.078Z,945.00
2018-03-30T08:17:43.074Z,945.01
2018-03-30T08:18:43.929Z,944.97
2018-03-30T08:19:43.086Z,945.04
2018-03-30T08:20:43.092Z,944.99
2018-03-30T08:21:43.111Z,944.96
2018-03-30T08:22:43.103Z,944.96
2018-03-30T08:23:43.109Z,944.95
2018-03-30T08:24:43.119Z,944.94
2018-03-30T08:25:43.128Z,944.97
2018-03-30T08:26:43.128Z,944.97
2018-03-30T08:27:43.135Z,944.96
2018-03-30T08:28:43.138Z,944.95
2018-03-30T08:29:43.144Z,944.97
2018-03-30T08:30:43.153Z,945.01
2018-03-30T08:31:43.156Z,945.01
2018-03-30T08:32:43.163Z,944.95
2018-03-30T08:33:43.169Z,944.92
2018-03-30T08:34:43.174Z,944.88
2018-03-30T08:35:43.179Z,944.87
2018-03-30T08:36:43.186Z,944.88
2018-03-30T08:37:43.193Z,944.88
2018-03-30T08:38:43.198Z,944.84
2018-03-30T08:39:43.205Z,944.86
2018-03-30T08:40:43.209Z,944.84
2018-03-30T08:41:43.998Z,944.90
2018-03-30T08:42:43.223Z,944.83
2018-03-30T08:43:43.228Z,944.89
2018-03-30T08:44:43.232Z,944.90
2018-03-30T08:45:43.241Z,944.90
2018-03-30T08:46:43.264Z,944.91
2018-03-30T08:47:43.254Z,944.94
2018-03-30T08:48:43.259Z,944.93
2018-03-30T08:49:43.265Z,944.94
2018-03-30T08:50:43.273Z,944.98
2018-03-30T08:51:43.277Z,944.95
2018-03-30T08:52:43.285Z,944.93
2018-03-30T08:53:43.291Z,944.94
2018-03-30T08:54:43.300Z,944.90
2018-03-30T08:55:43.302Z,944.90
2018-03-30T08:56:43.310Z,944.88
2018-03-30T08:57:43.314Z,944.86
2018-03-30T08:58:43.321Z,944.84
2018-03-30T08:59:43.328Z,944.86
2018-03-30T09:00:43.347Z,944.79
2018-03-30T09:01:43.341Z,944.79
2018-03-30T09:02:43.347Z,944.76
2018-03-30T09:03:43.362Z,944.77
2018-03-30T09:04:43.360Z,944.74
2018-03-30T09:05:43.397Z,944.81
2018-03-30T09:06:43.373Z,944.77
2018-03-30T09:07:43.398Z,944.73
2018-03-30T09:08:43.386Z,944.68
2018-03-30T09:09:43.413Z,944.64
2018-03-30T09:10:43.401Z,944.61
2018-03-30T09:11:43.404Z,944.59
2018-03-30T09:12:43.413Z,944.57
2018-03-30T09:13:43.421Z,944.55
2018-03-30T09:14:43.429Z,944.52
2018-03-30T09:15:43.435Z,944.51
2018-03-30T09:16:43.439Z,944.51
2018-03-30T09:17:43.451Z,944.51
2018-03-30T09:18:43.455Z,944.52
2018-03-30T09:19:43.457Z,944.51
2018-03-30T09:20:43.466Z,944.48
2018-03-30T09:21:43.473Z,944.44
2018-03-30T09:22:43.480Z,944.37
2018-03-30T09:23:43.488Z,944.36
2018-03-30T09:24:43.493Z,944.32
2018-03-30T09:25:43.498Z,944.32
2018-03-30T09:26:43.505Z,944.28
2018-03-30T09:27:43.513Z,944.27
2018-03-30T09:28:43.519Z,944.24
2018-03-30T09:29:43.533Z,944.26
2018-03-30T09:30:43.533Z,944.24
2018-03-30T09:31:43.539Z,944.27
2018-03-30T09:32:43.546Z,944.24
2018-03-30T09:33:43.555Z,944.26
2018-03-30T09:34:43.560Z,944.25
2018-03-30T09:35:43.574Z,944.25
2018-03-30T09:36:43.572Z,944.19
2018-03-30T09:37:43.584Z,944.20
2018-03-30T09:38:43.633Z,944.17
2018-03-30T09:39:43.601Z,944.21
2018-03-30T09:40:43.604Z,944.25
2018-03-30T09:41:43.609Z,944.22
2018-03-30T09:42:43.617Z,944.21
2018-03-30T09:43:43.628Z,944.17
2018-03-30T09:44:43.632Z,944.14
2018-03-30T09:45:43.645Z,944.14
2018-03-30T09:46:43.645Z,944.17
2018-03-30T09:47:43.653Z,944.21
2018-03-30T09:48:43.661Z,944.17
2018-03-30T09:49:43.668Z,944.16
2018-03-30T09:50:43.674Z,944.10
2018-03-30T09:51:43.681Z,944.09
2018-03-30T09:52:43.689Z,944.10
2018-03-30T09:53:43.699Z,944.07
2018-03-30T09:54:43.706Z,944.06
2018-03-30T09:55:44.446Z,944.05
2018-03-30T09:56:43.719Z,943.94
2018-03-30T09:57:43.736Z,943.92
2018-03-30T09:58:43.734Z,943.88
2018-03-30T09:59:43.741Z,943.85
2018-03-30T10:00:43.748Z,943.85
2018-03-30T10:01:43.756Z,943.83
2018-03-30T10:02:43.770Z,943.85
2018-03-30T10:03:43.770Z,943.84
2018-03-30T10:04:43.780Z,943.81
2018-03-30T10:05:43.799Z,943.80
2018-03-30T10:06:43.794Z,943.82
2018-03-30T10:07:43.806Z,943.80
2018-03-30T10:08:43.808Z,943.76
2018-03-30T10:09:43.828Z,943.71
2018-03-30T10:10:43.826Z,943.66
2018-03-30T10:11:43.897Z,943.64
2018-03-30T10:12:43.841Z,943.60
2018-03-30T10:13:43.849Z,943.59
2018-03-30T10:14:43.855Z,943.58
2018-03-30T10:15:43.863Z,943.55
2018-03-30T10:16:43.873Z,943.55
2018-03-30T10:17:43.880Z,943.54
2018-03-30T10:18:43.890Z,943.51
2018-03-30T10:19:43.898Z,943.50
2018-03-30T10:20:43.916Z,943.48
2018-03-30T10:21:43.912Z,943.46
2018-03-30T10:22:43.960Z,943.44
2018-03-30T10:23:43.982Z,943.43
2018-03-30T10:24:43.938Z,943.42
2018-03-30T10:25:43.950Z,943.36
2018-03-30T10:26:43.953Z,943.35
2018-03-30T10:27:43.970Z,943.33
2018-03-30T10:28:43.975Z,943.26
2018-03-30T10:29:43.981Z,943.18
2018-03-30T10:30:43.986Z,943.14
2018-03-30T10:31:43.993Z,943.08
2018-03-30T10:32:44.954Z,943.01
2018-03-30T10:33:44.010Z,942.99
2018-03-30T10:34:44.017Z,942.95
2018-03-30T10:35:44.024Z,942.95
2018-03-30T10:36:44.034Z,942.91
2018-03-30T10:37:44.048Z,942.90
2018-03-30T10:38:44.059Z,942.88
2018-03-30T10:39:44.060Z,942.84
2018-03-30T10:40:44.067Z,942.84
2018-03-30T10:41:44.077Z,942.83
2018-03-30T10:42:44.083Z,942.79
2018-03-30T10:43:44.092Z,942.72
2018-03-30T10:44:44.102Z,942.69
2018-03-30T10:45:44.162Z,942.65
2018-03-30T10:46:44.119Z,942.61
2018-03-30T10:47:44.163Z,942.59
2018-03-30T10:48:44.141Z,942.59
2018-03-30T10:49:44.193Z,942.52
2018-03-30T10:50:44.214Z,942.55
2018-03-30T10:51:44.175Z,942.55
2018-03-30T10:52:44.173Z,942.55
2018-03-30T10:53:44.207Z,942.58
2018-03-30T10:54:44.193Z,942.60
2018-03-30T10:55:44.203Z,942.57
2018-03-30T10:56:44.210Z,942.56
2018-03-30T10:57:44.215Z,942.62
2018-03-30T10:58:44.227Z,942.59
2018-03-30T10:59:44.233Z,942.59
2018-03-30T11:00:44.243Z,942.62
2018-03-30T11:01:44.253Z,942.61
2018-03-30T11:02:44.264Z,942.62
2018-03-30T11:03:44.271Z,942.66
2018-03-30T11:04:44.283Z,942.63
2018-03-30T11:05:44.292Z,942.67
2018-03-30T11:06:44.301Z,942.65
2018-03-30T11:07:44.311Z,942.60
2018-03-30T11:08:44.320Z,942.57
2018-03-30T11:09:44.352Z,942.56
2018-03-30T11:10:44.346Z,942.51
2018-03-30T11:11:44.348Z,942.52
2018-03-30T11:12:44.358Z,942.43
2018-03-30T11:13:44.371Z,942.43
2018-03-30T11:14:44.379Z,942.43
2018-03-30T11:15:44.387Z,942.43
2018-03-30T11:16:44.399Z,942.44
2018-03-30T11:17:44.408Z,942.43
2018-03-30T11:18:44.419Z,942.43
2018-03-30T11:19:44.430Z,942.40
2018-03-30T11:20:44.438Z,942.41
2018-03-30T11:21:44.460Z,942.35
2018-03-30T11:22:44.463Z,942.38
2018-03-30T11:23:44.466Z,942.39
2018-03-30T11:24:44.476Z,942.44
2018-03-30T11:25:44.487Z,942.45
2018-03-30T11:26:44.499Z,942.38
2018-03-30T11:27:44.506Z,942.35
2018-03-30T11:28:44.517Z,942.37
2018-03-30T11:29:45.031Z,942.33
2018-03-30T11:30:44.536Z,942.34
2018-03-30T11:31:44.546Z,942.28
2018-03-30T11:32:44.564Z,942.31
2018-03-30T11:33:44.569Z,942.32
2018-03-30T11:34:44.577Z,942.31
2018-03-30T11:35:44.594Z,942.27
2018-03-30T11:36:44.600Z,942.28
2018-03-30T11:37:44.607Z,942.23
2018-03-30T11:38:44.621Z,942.24
2018-03-30T11:39:44.692Z,942.15
2018-03-30T11:40:44.641Z,942.17
2018-03-30T11:41:44.652Z,942.18
2018-03-30T11:42:44.664Z,942.11
2018-03-30T11:43:44.720Z,942.14
2018-03-30T11:44:44.746Z,942.13
2018-03-30T11:45:45.473Z,942.13
2018-03-30T11:46:44.702Z,942.12
2018-03-30T11:47:44.715Z,942.08
2018-03-30T11:48:44.738Z,942.05
2018-03-30T11:49:44.738Z,942.02
2018-03-30T11:50:44.751Z,942.08
2018-03-30T11:51:44.751Z,942.02
2018-03-30T11:52:44.767Z,941.97
2018-03-30T11:53:44.781Z,942.01
2018-03-30T11:54:44.788Z,942.01
2018-03-30T11:55:44.796Z,942.02
2018-03-30T11:56:44.805Z,942.05
2018-03-30T11:57:44.867Z,941.99
2018-03-30T11:58:44.832Z,941.97
2018-03-30T11:59:44.840Z,941.97
2018-03-30T12:00:44.848Z,941.92
2018-03-30T12:01:44.862Z,941.90
2018-03-30T12:02:44.872Z,941.91
2018-03-30T12:03:44.881Z,941.90
2018-03-30T12:04:44.891Z,941.88
2018-03-30T12:05:45.476Z,941.85
2018-03-30T12:06:44.914Z,941.87
2018-03-30T12:07:44.924Z,941.82
2018-03-30T12:08:44.941Z,941.81
2018-03-30T12:09:44.948Z,941.81
2018-03-30T12:10:45.477Z,941.80
2018-03-30T12:11:44.970Z,941.75
2018-03-30T12:12:44.984Z,941.76
2018-03-30T12:13:44.993Z,941.78
2018-03-30T12:14:45.008Z,941.79
2018-03-30T12:15:45.014Z,941.81
2018-03-30T12:16:45.029Z,941.83
2018-03-30T12:17:45.041Z,941.76
2018-03-30T12:18:45.051Z,942.04
2018-03-30T12:19:45.064Z,942.13
2018-03-30T12:20:45.073Z,942.07
2018-03-30T12:21:45.083Z,941.91
2018-03-30T12:22:45.101Z,941.87
2018-03-30T12:23:45.107Z,941.89
2018-03-30T12:24:45.132Z,942.05
2018-03-30T12:25:45.128Z,941.52
2018-03-30T12:26:45.148Z,941.59
2018-03-30T12:27:45.155Z,941.58
2018-03-30T12:28:45.165Z,942.08